KFHR/FHR METAR and TAF weather

Enter ICAO airport designator
Station Type Date Time Source
KFHR METAR 2021/04/18 01:53 UTC NOAA

KFHR 180153Z AUTO 32004KT 10SM CLR 20/02 A3016 RMK AO2 SLP212 T02000017 TSNO


Station Type Date Time Source
KFHR Decoded METAR 2021/04/18 01:53 UTC NOAA

FRIDAY HARBOR AIRPORT, WA, United States (KFHR) 48-31N 123-02W 32M
Apr 17, 2021 - 09:53 PM EDT / 2021.04.18 0153 UTC
Wind: from the NW (320 degrees) at 5 MPH (4 KT):0
Visibility: 10 mile(s):0
Sky conditions: clear
Temperature: 68.0 F (20.0 C)
Dew Point: 35.1 F (1.7 C)
Relative Humidity: 29%
Pressure (altimeter): 30.16 in. Hg (1021 hPa)
ob: KFHR 180153Z AUTO 32004KT 10SM CLR 20/02 A3016 RMK AO2 SLP212 T02000017 TSNO
cycle: 2

Station Type Date Time Source
KFHR TAF UTC NOAA

Error!

Example: see airport list